Time;durP1;ratioP1;P1;durP2;ratioP2;P2;SDS_P1;SDS_P2;PMS_P1;PMS_P2;Temp;Humidity;BMP_temperature;BMP_pressure;BME280_temperature;BME280_humidity;BME280_pressure;Samples;Min_cycle;Max_cycle;Signal;HPM_P1;HPM_P2
2021/08/22 00:02:10;;;;;;;2.35;1.55;;;;;;;21.78;41.86;101043.63;2651803;36;20034;-71
2021/08/22 00:04:43;;;;;;;3.22;1.80;;;;;;;21.76;41.84;101034.59;2614972;54;20030;-71
2021/08/22 00:07:13;;;;;;;;;;;;;;;21.43;42.46;101034.28;2652034;36;20046;-71
2021/08/22 00:09:43;;;;;;;2.65;1.50;;;;;;;21.63;41.62;101024.22;2614888;54;19947;-71
2021/08/22 00:12:13;;;;;;;2.45;1.33;;;;;;;21.64;41.90;101023.19;2652244;36;20045;-71
2021/08/22 00:14:42;;;;;;;2.33;1.45;;;;;;;21.63;41.89;101020.59;2616461;54;20030;-71
2021/08/22 00:17:12;;;;;;;2.47;1.20;;;;;;;21.61;42.65;101014.34;2653884;31;20515;-71
2021/08/22 00:19:46;;;;;;;3.30;1.40;;;;;;;21.62;42.56;101010.50;2618889;54;20098;-71
2021/08/22 00:22:16;;;;;;;2.58;1.38;;;;;;;21.58;42.45;101003.59;2654688;36;20026;-71
2021/08/22 00:24:46;;;;;;;2.95;1.60;;;;;;;21.57;42.60;100999.13;2615107;54;20033;-71
2021/08/22 00:27:17;;;;;;;3.20;1.55;;;;;;;21.57;42.72;100993.56;2651599;36;20096;-71
2021/08/22 00:29:47;;;;;;;2.38;1.40;;;;;;;21.56;42.94;101005.75;2615110;54;20160;-71
2021/08/22 00:32:17;;;;;;;2.47;1.40;;;;;;;21.55;42.96;101004.00;2652279;36;20034;-71
2021/08/22 00:34:49;;;;;;;2.28;1.30;;;;;;;21.54;43.10;101008.69;2615481;39;20518;-71
2021/08/22 00:37:20;;;;;;;1.90;1.08;;;;;;;21.48;42.45;101006.72;2651564;36;20038;-71
2021/08/22 00:39:50;;;;;;;2.50;1.20;;;;;;;21.50;42.38;101006.50;2615007;54;20743;-71
2021/08/22 00:42:20;;;;;;;2.13;1.33;;;;;;;21.49;42.80;101024.28;2651891;36;22776;-71
2021/08/22 00:44:50;;;;;;;3.20;1.33;;;;;;;21.47;42.68;101018.91;2615302;39;20559;-71
2021/08/22 00:47:20;;;;;;;2.95;1.48;;;;;;;21.43;42.52;101024.00;2651628;36;20042;-71
2021/08/22 00:49:53;;;;;;;2.88;1.30;;;;;;;21.45;42.78;101026.59;2615361;31;20542;-71
2021/08/22 00:52:23;;;;;;;2.75;1.35;;;;;;;21.40;42.47;101030.00;2651459;36;20544;-71
2021/08/22 00:54:53;;;;;;;2.25;1.45;;;;;;;21.39;42.50;101028.28;2614990;54;20022;-71
2021/08/22 00:57:23;;;;;;;2.33;1.40;;;;;;;21.38;43.03;101028.47;2651180;36;20035;-71
2021/08/22 00:59:53;;;;;;;2.67;1.17;;;;;;;21.36;42.59;101031.44;2614500;54;20034;-71
2021/08/22 01:02:31;;;;;;;2.63;1.35;;;;;;;21.40;43.29;101030.00;2651658;36;20167;-71
2021/08/22 01:05:11;;;;;;;2.78;1.60;;;;;;;21.39;43.64;101027.41;2614833;54;20038;-71
2021/08/22 01:07:48;;;;;;;2.20;1.20;;;;;;;21.38;43.65;101029.31;2651461;36;20044;-71
2021/08/22 01:10:22;;;;;;;3.20;1.38;;;;;;;21.34;43.30;101025.19;2614838;54;20038;-71
2021/08/22 01:13:03;;;;;;;2.55;1.30;;;;;;;21.35;43.12;101026.06;2651221;36;20038;-71
2021/08/22 01:15:37;;;;;;;2.58;1.40;;;;;;;21.33;42.80;101031.81;2614911;51;20039;-71
2021/08/22 01:18:10;;;;;;;2.50;1.40;;;;;;;21.29;43.13;101027.72;2651490;36;20141;-71
2021/08/22 01:20:51;;;;;;;2.83;1.63;;;;;;;21.30;43.53;101035.03;2615369;39;20934;-71
2021/08/22 01:23:22;;;;;;;2.67;1.55;;;;;;;21.25;43.05;101039.44;2651508;36;20038;-71
2021/08/22 01:25:53;;;;;;;3.88;1.70;;;;;;;21.24;43.39;101041.41;2614791;54;20034;-71
2021/08/22 01:28:25;;;;;;;3.33;1.48;;;;;;;21.25;42.84;101048.66;2651637;36;20134;-71
2021/08/22 01:30:58;;;;;;;2.83;1.60;;;;;;;21.22;43.12;101049.06;2614779;54;20765;-71
2021/08/22 01:33:33;;;;;;;2.60;1.52;;;;;;;21.19;43.17;101052.22;2651443;36;20070;-71
2021/08/22 01:36:04;;;;;;;3.15;1.73;;;;;;;21.17;43.19;101051.56;2614585;54;20038;-71
2021/08/22 01:38:34;;;;;;;3.25;1.42;;;;;;;21.15;43.02;101053.72;2651236;36;20035;-71
2021/08/22 01:41:05;;;;;;;4.18;1.70;;;;;;;21.14;43.09;101054.75;2614994;54;20030;-71
2021/08/22 01:43:38;;;;;;;2.40;1.40;;;;;;;21.13;43.21;101050.25;2651707;36;20544;-71
2021/08/22 01:46:09;;;;;;;4.05;1.50;;;;;;;21.11;43.11;101054.28;2614544;54;20094;-71
2021/08/22 01:48:42;;;;;;;3.00;1.55;;;;;;;21.11;43.95;101057.06;2651666;36;20441;-71
2021/08/22 01:51:13;;;;;;;3.15;1.38;;;;;;;21.08;43.56;101049.97;2614874;39;20415;-72
2021/08/22 01:53:43;;;;;;;2.80;1.40;;;;;;;21.06;43.29;101057.66;2651436;36;20038;-71
2021/08/22 01:56:13;;;;;;;2.95;1.50;;;;;;;21.04;43.75;101066.19;2614696;54;20039;-71
2021/08/22 01:58:43;;;;;;;3.85;1.80;;;;;;;21.03;43.32;101056.13;2651173;36;20538;-71
2021/08/22 02:01:16;;;;;;;3.88;1.52;;;;;;;21.05;43.31;101055.94;2615006;54;20034;-71
2021/08/22 02:03:54;;;;;;;3.90;1.67;;;;;;;21.03;43.44;101041.34;2651271;36;20560;-71
2021/08/22 02:06:29;;;;;;;2.42;1.30;;;;;;;21.01;43.09;101037.91;2614755;54;20039;-71
2021/08/22 02:09:03;;;;;;;2.72;1.50;;;;;;;21.00;43.60;101037.03;2651237;36;20073;-71
2021/08/22 02:11:42;;;;;;;2.95;1.55;;;;;;;20.99;43.44;101032.56;2615272;54;20030;-71
2021/08/22 02:14:25;;;;;;;3.38;1.60;;;;;;;21.00;43.89;101033.41;2651245;36;20038;-71
2021/08/22 02:16:58;;;;;;;3.65;1.85;;;;;;;20.94;43.59;101037.84;2614711;54;20042;-71
2021/08/22 02:19:32;;;;;;;2.95;1.83;;;;;;;20.96;43.06;101043.19;2633164;36;20098;-71
2021/08/22 02:22:03;;;;;;;3.50;1.80;;;;;;;20.91;43.45;101041.00;2629329;36;20038;-72
2021/08/22 02:24:33;;;;;;;3.00;1.80;;;;;;;20.92;43.72;101039.06;2634383;36;20418;-71
2021/08/22 02:27:04;;;;;;;2.72;1.60;;;;;;;20.90;43.64;101030.09;2638935;36;20035;-72
2021/08/22 02:29:34;;;;;;;3.50;1.90;;;;;;;20.89;43.83;101043.13;2615417;54;20042;-71
2021/08/22 02:32:04;;;;;;;3.60;2.03;;;;;;;20.88;43.95;101038.59;2645798;36;20129;-72
2021/08/22 02:34:37;;;;;;;4.00;1.73;;;;;;;20.90;43.39;101044.00;2615220;54;20576;-71
2021/08/22 02:37:07;;;;;;;;;;;;;;;20.59;44.42;101044.19;2652809;36;20718;-71
2021/08/22 02:39:37;;;;;;;3.15;1.92;;;;;;;20.81;43.18;101048.78;2615337;54;20473;-71
2021/08/22 02:42:07;;;;;;;3.28;1.90;;;;;;;20.84;43.79;101051.16;2652306;36;20033;-72
2021/08/22 02:44:37;;;;;;;4.10;1.88;;;;;;;20.84;43.93;101053.94;2615306;54;20046;-71
2021/08/22 02:47:08;;;;;;;3.63;2.20;;;;;;;20.83;43.77;101045.81;2651851;36;20030;-71
2021/08/22 02:49:40;;;;;;;3.75;2.10;;;;;;;20.84;44.43;101053.06;2615151;54;20034;-71
2021/08/22 02:52:11;;;;;;;3.70;2.08;;;;;;;20.79;43.39;101058.34;2652461;36;20050;-71
2021/08/22 02:54:40;;;;;;;3.92;2.17;;;;;;;20.79;43.94;101056.44;2615822;39;20466;-71
2021/08/22 02:57:10;;;;;;;4.35;2.50;;;;;;;20.78;44.16;101062.19;2652263;36;20844;-71
2021/08/22 02:59:40;;;;;;;4.43;2.60;;;;;;;20.78;44.08;101062.19;2615062;54;20034;-72
2021/08/22 03:02:10;;;;;;;4.22;2.55;;;;;;;20.76;44.03;101067.94;2651733;36;20555;-71
2021/08/22 03:04:43;;;;;;;4.25;2.60;;;;;;;20.78;44.57;101064.97;2615233;54;20037;-71
2021/08/22 03:07:13;;;;;;;4.68;2.97;;;;;;;20.74;44.04;101064.53;2652000;36;20092;-71
2021/08/22 03:09:43;;;;;;;4.90;2.72;;;;;;;20.73;44.35;101061.94;2616112;39;20471;-71
2021/08/22 03:12:14;;;;;;;4.93;3.10;;;;;;;20.72;44.11;101055.50;2652271;36;20039;-71
2021/08/22 03:14:44;;;;;;;5.50;3.00;;;;;;;20.70;44.48;101055.69;2615302;54;20049;-71
2021/08/22 03:17:14;;;;;;;4.85;2.72;;;;;;;20.70;44.34;101058.47;2651759;36;20102;-71
2021/08/22 03:19:46;;;;;;;4.78;3.10;;;;;;;20.70;44.25;101055.69;2615196;54;20577;-71
2021/08/22 03:22:16;;;;;;;4.22;2.80;;;;;;;20.67;44.47;101047.72;2651666;36;20038;-71
2021/08/22 03:24:46;;;;;;;5.20;2.92;;;;;;;20.68;44.49;101052.22;2615461;54;20030;-71
2021/08/22 03:27:16;;;;;;;4.70;3.13;;;;;;;20.68;44.86;101048.59;2651662;36;20037;-71
2021/08/22 03:29:45;;;;;;;4.90;3.33;;;;;;;20.67;44.26;101044.94;2615096;54;20545;-71
2021/08/22 03:32:15;;;;;;;5.00;3.28;;;;;;;20.68;44.77;101041.13;2651494;36;20038;-71
2021/08/22 03:34:48;;;;;;;4.70;3.05;;;;;;;20.70;45.35;101044.56;2615365;54;20030;-71
2021/08/22 03:37:18;;;;;;;5.03;3.05;;;;;;;20.67;44.84;101052.44;2651658;36;20038;-71
2021/08/22 03:39:47;;;;;;;4.68;3.20;;;;;;;20.68;45.04;101046.69;2615676;39;20462;-71
2021/08/22 03:42:18;;;;;;;5.30;3.10;;;;;;;20.70;45.23;101046.47;2652301;36;20159;-70
2021/08/22 03:44:48;;;;;;;5.15;3.30;;;;;;;20.68;44.87;101049.44;2615062;54;20057;-70
2021/08/22 03:47:18;;;;;;;4.63;2.75;;;;;;;20.67;44.92;101050.50;2651260;36;20205;-70
2021/08/22 03:49:51;;;;;;;4.28;2.90;;;;;;;20.69;45.57;101053.09;2615260;54;20026;-70
2021/08/22 03:52:21;;;;;;;5.50;3.33;;;;;;;20.66;45.40;101057.16;2651724;36;20024;-69
2021/08/22 03:54:51;;;;;;;5.20;3.30;;;;;;;20.66;45.25;101059.94;2614650;54;20035;-70
2021/08/22 03:57:22;;;;;;;6.13;3.33;;;;;;;20.65;45.38;101058.19;2651258;36;20050;-70
2021/08/22 03:59:52;;;;;;;6.32;3.45;;;;;;;20.65;44.98;101049.88;2615259;54;20037;-70
2021/08/22 04:02:23;;;;;;;5.82;3.30;;;;;;;20.66;45.17;101048.81;2651764;36;20027;-70
2021/08/22 04:05:15;;;;;;;4.90;3.45;;;;;;;20.68;45.42;101059.72;2615357;54;20073;-70
2021/08/22 04:07:48;;;;;;;4.20;3.15;;;;;;;20.67;45.35;101049.63;2651282;36;20143;-70
2021/08/22 04:10:18;;;;;;;5.68;3.35;;;;;;;20.66;45.31;101042.38;2615346;54;20026;-70
2021/08/22 04:12:48;;;;;;;4.88;3.50;;;;;;;20.67;45.18;101050.50;2651952;36;20799;-70
2021/08/22 04:15:19;;;;;;;5.78;3.60;;;;;;;20.69;45.53;101041.97;2615136;54;20031;-70
2021/08/22 04:17:50;;;;;;;5.07;3.33;;;;;;;20.69;44.86;101050.31;2651416;36;20056;-70
2021/08/22 04:20:23;;;;;;;4.55;3.17;;;;;;;20.70;45.46;101039.00;2615093;54;20030;-70
2021/08/22 04:22:53;;;;;;;5.75;3.67;;;;;;;20.68;45.34;101040.25;2651797;36;20819;-70
2021/08/22 04:25:24;;;;;;;5.57;3.42;;;;;;;20.67;45.49;101056.06;2615441;54;20034;-69
2021/08/22 04:27:54;;;;;;;5.97;3.83;;;;;;;20.66;45.24;101048.81;2651315;36;20717;-70
2021/08/22 04:30:24;;;;;;;5.25;3.78;;;;;;;20.63;45.17;101057.53;2615069;54;20026;-70
2021/08/22 04:32:54;;;;;;;5.78;4.00;;;;;;;20.61;45.20;101064.31;2651870;36;20034;-70
2021/08/22 04:35:28;;;;;;;5.57;3.75;;;;;;;20.62;45.64;101066.91;2615516;54;20057;-70
2021/08/22 04:37:57;;;;;;;;;;;;;;;20.31;45.77;101069.03;2651413;36;20161;-70
2021/08/22 04:40:28;;;;;;;5.40;3.33;;;;;;;20.51;45.60;101070.16;2615373;54;19946;-70
2021/08/22 04:42:58;;;;;;;5.22;3.70;;;;;;;20.53;45.14;101062.50;2651642;36;20042;-70
2021/08/22 04:45:28;;;;;;;5.82;4.10;;;;;;;20.50;44.94;101068.44;2614903;54;20030;-69
2021/08/22 04:47:58;;;;;;;6.15;4.38;;;;;;;20.48;45.18;101069.72;2650901;36;20038;-70
2021/08/22 04:50:31;;;;;;;7.15;4.63;;;;;;;20.46;45.18;101064.34;2615049;54;20073;-69
2021/08/22 04:53:01;;;;;;;;;;;;;;;20.16;45.15;101070.94;2651693;36;20062;-70
2021/08/22 04:55:31;;;;;;;6.30;4.03;;;;;;;20.36;45.44;101083.22;2615099;54;19947;-71
2021/08/22 04:58:01;;;;;;;6.28;4.25;;;;;;;20.36;44.96;101071.22;2651283;36;20026;-71
2021/08/22 05:00:30;;;;;;;8.02;4.85;;;;;;;20.34;44.74;101070.59;2614713;54;20050;-71
2021/08/22 05:03:01;;;;;;;7.10;4.15;;;;;;;20.29;45.20;101076.69;2651829;36;20042;-71
